createdAt,value
2022-09-20T06:21:49.543Z,14.59
2022-09-20T06:23:56.988Z,15.20
2022-09-20T06:26:07.798Z,15.68
2022-09-20T06:28:31.793Z,16.05
2022-09-20T06:30:51.073Z,16.91
2022-09-20T06:33:06.558Z,16.97
2022-09-20T06:35:08.432Z,16.24
2022-09-20T06:37:31.435Z,15.04
2022-09-20T06:40:35.577Z,13.92
2022-09-20T06:42:39.147Z,14.79
2022-09-20T06:44:43.332Z,15.92
2022-09-20T06:46:51.565Z,15.73
2022-09-20T06:48:59.557Z,15.98
2022-09-20T06:51:01.590Z,16.19
2022-09-20T06:53:03.512Z,16.28
2022-09-20T06:55:13.570Z,14.73
2022-09-20T06:57:18.744Z,14.85
2022-09-20T06:59:20.330Z,14.35
2022-09-20T07:01:30.743Z,15.62
2022-09-20T07:03:32.939Z,15.63
2022-09-20T07:05:35.897Z,15.67
2022-09-20T07:07:43.597Z,14.42
2022-09-20T07:09:45.688Z,16.47
2022-09-20T07:11:47.342Z,15.61
2022-09-20T07:14:04.689Z,16.61
2022-09-20T07:16:08.328Z,15.71
2022-09-20T07:18:09.986Z,15.68
2022-09-20T07:20:21.499Z,16.67
2022-09-20T07:22:23.285Z,16.30
2022-09-20T07:24:24.895Z,15.96
2022-09-20T07:26:35.601Z,17.05
2022-09-20T07:28:37.202Z,16.66
2022-09-20T07:30:39.203Z,16.66
2022-09-20T07:32:47.648Z,16.19
2022-09-20T07:34:49.286Z,17.46
2022-09-20T07:36:51.413Z,17.89
2022-09-20T07:38:59.701Z,17.64
2022-09-20T07:41:02.442Z,17.43
2022-09-20T07:43:04.398Z,17.89
2022-09-20T07:45:13.643Z,18.28
2022-09-20T07:47:15.579Z,18.11
2022-09-20T07:49:17.453Z,17.35
2022-09-20T07:51:25.643Z,17.23
2022-09-20T07:53:27.240Z,16.95
2022-09-20T07:55:28.830Z,17.74
2022-09-20T07:57:42.656Z,18.00
2022-09-20T07:59:44.270Z,18.00
2022-09-20T08:01:45.935Z,18.00
2022-09-20T08:03:53.625Z,18.62
2022-09-20T08:06:03.046Z,18.52
2022-09-20T08:08:04.647Z,18.70
2022-09-20T08:10:13.634Z,18.49
2022-09-20T08:14:43.219Z,18.08
2022-09-20T08:16:47.833Z,16.35
2022-09-20T08:19:02.667Z,16.15
2022-09-20T08:21:10.280Z,17.01
2022-09-20T08:23:23.358Z,17.95
2022-09-20T08:25:31.681Z,18.09
2022-09-20T08:27:33.337Z,17.51
2022-09-20T08:29:35.126Z,17.47
2022-09-20T08:31:46.754Z,18.01
2022-09-20T08:33:50.515Z,18.78
2022-09-20T08:35:57.734Z,18.53
2022-09-20T08:40:37.797Z,18.75
2022-09-20T08:42:44.624Z,19.31
2022-09-20T08:44:57.893Z,19.97
2022-09-20T08:47:27.705Z,19.32
2022-09-20T08:49:30.311Z,18.66
2022-09-20T08:51:35.878Z,18.37
2022-09-20T08:53:49.700Z,17.95
2022-09-20T08:55:51.315Z,18.23
2022-09-20T08:57:55.296Z,19.10
2022-09-20T09:00:05.715Z,17.70
2022-09-20T09:02:19.012Z,17.26
2022-09-20T09:04:31.868Z,17.76
2022-09-20T09:06:39.721Z,18.33
2022-09-20T09:08:44.716Z,18.46
2022-09-20T09:11:02.015Z,18.89
2022-09-20T09:13:11.733Z,18.53
2022-09-20T09:15:30.132Z,18.73
2022-09-20T09:17:31.776Z,18.63
2022-09-20T09:19:53.737Z,18.61
2022-09-20T09:22:07.915Z,19.77
2022-09-20T09:24:19.347Z,19.38
2022-09-20T09:26:23.751Z,18.65
2022-09-20T09:28:35.768Z,19.83
2022-09-20T09:30:42.979Z,19.07
2022-09-20T09:32:44.931Z,20.28
2022-09-20T09:34:52.753Z,20.22
2022-09-20T09:36:55.486Z,18.93
2022-09-20T09:39:16.412Z,20.77
2022-09-20T09:41:24.764Z,21.11
2022-09-20T09:43:35.654Z,20.96
2022-09-20T09:45:39.264Z,20.55
2022-09-20T09:47:47.835Z,20.07
2022-09-20T09:50:09.851Z,21.24
2022-09-20T09:52:19.718Z,21.11
2022-09-20T09:54:31.763Z,20.52
2022-09-20T09:57:14.772Z,20.66
2022-09-20T09:59:42.628Z,20.89
2022-09-20T10:02:25.902Z,21.62
2022-09-20T10:04:39.459Z,20.62
2022-09-20T10:07:11.563Z,20.92
2022-09-20T10:09:24.802Z,21.44
2022-09-20T10:12:26.323Z,21.76
2022-09-20T10:14:47.816Z,21.48
2022-09-20T10:17:01.242Z,20.87
2022-09-20T10:19:06.593Z,20.60
2022-09-20T10:21:31.830Z,20.42
2022-09-20T10:24:09.041Z,21.02
2022-09-20T10:26:28.721Z,21.48
2022-09-20T10:29:32.838Z,21.63
2022-09-20T10:31:49.818Z,21.20
2022-09-20T10:34:20.752Z,20.81
2022-09-20T10:36:53.853Z,21.21
2022-09-20T10:39:13.555Z,21.66
2022-09-20T10:41:41.735Z,21.85
2022-09-20T10:44:23.824Z,21.04
2022-09-20T10:46:37.858Z,21.57
2022-09-20T10:48:51.214Z,20.94
2022-09-20T10:51:17.491Z,21.59
2022-09-20T10:53:44.866Z,20.94
2022-09-20T10:55:59.901Z,21.63
2022-09-20T10:58:35.546Z,20.99
